createdAt,value
2022-10-11T00:00:11.644Z,13.90
2022-10-11T00:01:11.809Z,13.89
2022-10-11T00:02:11.645Z,13.89
2022-10-11T00:03:11.589Z,13.89
2022-10-11T00:04:11.586Z,13.89
2022-10-11T00:05:11.553Z,13.90
2022-10-11T00:06:11.554Z,13.90
2022-10-11T00:07:11.765Z,13.91
2022-10-11T00:08:11.533Z,13.91
2022-10-11T00:09:11.529Z,13.91
2022-10-11T00:10:11.515Z,13.92
2022-10-11T00:11:11.512Z,13.92
2022-10-11T00:12:11.493Z,13.91
2022-10-11T00:13:11.623Z,13.90
2022-10-11T00:14:11.481Z,13.90
2022-10-11T00:15:11.458Z,13.89
2022-10-11T00:16:11.456Z,13.89
2022-10-11T00:17:11.423Z,13.88
2022-10-11T00:18:11.414Z,13.88
2022-10-11T00:19:11.792Z,13.88
2022-10-11T00:20:11.392Z,13.88
2022-10-11T00:21:11.389Z,13.88
2022-10-11T00:22:11.376Z,13.87
2022-10-11T00:23:11.363Z,13.87
2022-10-11T00:24:11.369Z,13.86
2022-10-11T00:25:11.539Z,13.86
2022-10-11T00:26:11.325Z,13.85
2022-10-11T00:27:11.318Z,13.83
2022-10-11T00:28:11.354Z,13.80
2022-10-11T00:29:11.306Z,13.77
2022-10-11T00:30:11.284Z,13.75
2022-10-11T00:31:11.635Z,13.73
2022-10-11T00:32:11.265Z,13.71
2022-10-11T00:33:11.263Z,13.69
2022-10-11T00:34:11.241Z,13.68
2022-10-11T00:35:11.225Z,13.67
2022-10-11T00:36:11.217Z,13.67
2022-10-11T00:37:11.374Z,13.67
2022-10-11T00:38:11.194Z,13.66
2022-10-11T00:39:12.949Z,13.65
2022-10-11T00:40:11.177Z,13.64
2022-10-11T00:41:11.167Z,13.64
2022-10-11T00:42:11.165Z,13.63
2022-10-11T00:43:11.464Z,13.63
2022-10-11T00:44:11.152Z,13.64
2022-10-11T00:45:11.120Z,13.64
2022-10-11T00:46:11.116Z,13.64
2022-10-11T00:47:11.093Z,13.63
2022-10-11T00:48:11.098Z,13.63
2022-10-11T00:49:11.226Z,13.63
2022-10-11T00:50:11.088Z,13.62
2022-10-11T00:51:11.087Z,13.61
2022-10-11T00:52:11.083Z,13.59
2022-10-11T00:53:11.039Z,13.59
2022-10-11T00:54:11.046Z,13.58
2022-10-11T00:55:11.236Z,13.57
2022-10-11T00:56:11.032Z,13.56
2022-10-11T00:57:10.995Z,13.55
2022-10-11T00:58:10.985Z,13.54
2022-10-11T00:59:10.980Z,13.53
2022-10-11T01:00:10.968Z,13.52
2022-10-11T01:01:11.329Z,13.52
2022-10-11T01:02:10.937Z,13.51
2022-10-11T01:03:10.929Z,13.51
2022-10-11T01:04:10.934Z,13.50
2022-10-11T01:05:28.599Z,13.50
2022-10-11T01:06:12.291Z,13.49
2022-10-11T01:07:10.896Z,13.49
2022-10-11T01:08:10.865Z,13.48
2022-10-11T01:09:10.859Z,13.47
2022-10-11T01:10:10.868Z,13.46
2022-10-11T01:11:10.843Z,13.45
2022-10-11T01:12:11.204Z,13.44
2022-10-11T01:13:10.806Z,13.44
2022-10-11T01:14:10.802Z,13.43
2022-10-11T01:15:10.815Z,13.43
2022-10-11T01:16:10.776Z,13.43
2022-10-11T01:17:10.778Z,13.43
2022-10-11T01:18:10.980Z,13.43
2022-10-11T01:19:10.746Z,13.42
2022-10-11T01:20:10.750Z,13.42
2022-10-11T01:21:10.740Z,13.42
2022-10-11T01:22:10.717Z,13.41
2022-10-11T01:23:10.707Z,13.41
2022-10-11T01:24:11.167Z,13.41
2022-10-11T01:25:10.677Z,13.41
2022-10-11T01:26:10.670Z,13.41
2022-10-11T01:27:10.677Z,13.41
2022-10-11T01:28:10.653Z,13.41
2022-10-11T01:29:10.647Z,13.41
2022-10-11T01:30:10.848Z,13.41
2022-10-11T01:31:10.616Z,13.40
2022-10-11T01:32:10.610Z,13.40
2022-10-11T01:33:10.587Z,13.39
2022-10-11T01:34:10.579Z,13.38
2022-10-11T01:35:10.576Z,13.37
2022-10-11T01:36:10.886Z,13.36
2022-10-11T01:37:10.551Z,13.35
2022-10-11T01:38:10.545Z,13.34
2022-10-11T01:39:10.521Z,13.34
2022-10-11T01:40:10.519Z,13.33
2022-10-11T01:41:10.503Z,13.32
2022-10-11T01:42:10.701Z,13.32
2022-10-11T01:43:10.485Z,13.31
2022-10-11T01:44:10.477Z,13.30
2022-10-11T01:45:10.448Z,13.29
2022-10-11T01:46:10.457Z,13.28
2022-10-11T01:47:10.454Z,13.27
2022-10-11T01:48:10.656Z,13.26
2022-10-11T01:49:10.429Z,13.24
2022-10-11T01:50:10.397Z,13.24
2022-10-11T01:51:10.398Z,13.23
2022-10-11T01:52:10.397Z,13.23
2022-10-11T01:53:10.381Z,13.22
2022-10-11T01:54:10.581Z,13.21
2022-10-11T01:55:10.694Z,13.19
2022-10-11T01:56:10.340Z,13.18
2022-10-11T01:57:10.339Z,13.17
2022-10-11T01:58:10.333Z,13.16
2022-10-11T01:59:10.312Z,13.15
2022-10-11T02:00:10.478Z,13.14
2022-10-11T02:01:10.320Z,13.13
2022-10-11T02:02:10.281Z,13.12
2022-10-11T02:03:10.270Z,13.11
2022-10-11T02:04:10.459Z,13.11
2022-10-11T02:05:10.250Z,13.10
2022-10-11T02:06:10.252Z,13.09
2022-10-11T02:07:10.230Z,13.08
2022-10-11T02:08:10.209Z,13.07
2022-10-11T02:09:10.198Z,13.06
2022-10-11T02:10:10.418Z,13.05
2022-10-11T02:11:10.179Z,13.04
2022-10-11T02:12:10.192Z,13.03
2022-10-11T02:13:10.156Z,13.03
2022-10-11T02:14:10.147Z,13.02
2022-10-11T02:15:10.131Z,13.01
2022-10-11T02:16:10.318Z,13.01
2022-10-11T02:17:10.118Z,13.01
2022-10-11T02:18:10.127Z,13.00
2022-10-11T02:19:10.097Z,13.00
2022-10-11T02:20:10.097Z,12.99
2022-10-11T02:21:10.061Z,12.99
2022-10-11T02:22:10.223Z,12.98
2022-10-11T02:23:10.067Z,12.98
2022-10-11T02:24:10.052Z,12.98
2022-10-11T02:25:10.034Z,12.97
2022-10-11T02:26:10.019Z,12.97
2022-10-11T02:27:09.999Z,12.97
2022-10-11T02:28:10.301Z,12.96
2022-10-11T02:29:09.987Z,12.95
2022-10-11T02:30:09.972Z,12.93
2022-10-11T02:31:09.960Z,12.92
2022-10-11T02:32:09.951Z,12.91
2022-10-11T02:33:09.929Z,12.90
2022-10-11T02:34:10.381Z,12.89
2022-10-11T02:35:09.909Z,12.87
2022-10-11T02:36:09.910Z,12.85
2022-10-11T02:37:09.896Z,12.83
2022-10-11T02:38:09.878Z,12.81
2022-10-11T02:39:09.873Z,12.79
2022-10-11T02:40:10.189Z,12.77
2022-10-11T02:41:09.838Z,12.75
2022-10-11T02:42:17.359Z,12.74
2022-10-11T02:43:09.822Z,12.72
2022-10-11T02:44:09.812Z,12.71
2022-10-11T02:45:09.819Z,12.69
2022-10-11T02:46:10.010Z,12.68
2022-10-11T02:47:09.781Z,12.66
2022-10-11T02:48:09.779Z,12.64
2022-10-11T02:49:09.757Z,12.63
2022-10-11T02:50:09.751Z,12.61
2022-10-11T02:51:09.730Z,12.60
2022-10-11T02:52:10.051Z,12.59
2022-10-11T02:53:09.717Z,12.58
2022-10-11T02:54:09.702Z,12.57
2022-10-11T02:55:09.703Z,12.55
2022-10-11T02:56:09.683Z,12.54
2022-10-11T02:57:09.682Z,12.52
2022-10-11T02:58:10.003Z,12.51
2022-10-11T02:59:09.652Z,12.49
2022-10-11T03:00:09.632Z,12.47
2022-10-11T03:01:09.676Z,12.46
2022-10-11T03:02:09.623Z,12.44
2022-10-11T03:03:09.613Z,12.42
2022-10-11T03:04:09.928Z,12.39
2022-10-11T03:05:09.622Z,12.37
2022-10-11T03:06:09.579Z,12.34
2022-10-11T03:07:09.563Z,12.32
2022-10-11T03:08:09.553Z,12.29
2022-10-11T03:09:09.547Z,12.26
2022-10-11T03:10:09.916Z,12.24
2022-10-11T03:11:09.535Z,12.21
2022-10-11T03:12:09.501Z,12.18
2022-10-11T03:13:09.494Z,12.15
2022-10-11T03:14:09.489Z,12.13
2022-10-11T03:15:09.469Z,12.10
2022-10-11T03:16:10.226Z,12.07
2022-10-11T03:17:34.375Z,12.04
2022-10-11T03:18:10.451Z,12.01
2022-10-11T03:19:09.436Z,11.98
2022-10-11T03:20:09.429Z,11.96
2022-10-11T03:21:09.415Z,11.93
2022-10-11T03:22:09.552Z,11.91
2022-10-11T03:23:09.402Z,11.89
2022-10-11T03:24:09.372Z,11.87
2022-10-11T03:25:09.362Z,11.85
2022-10-11T03:26:09.608Z,11.83
2022-10-11T03:27:09.349Z,11.80
2022-10-11T03:28:09.564Z,11.78
2022-10-11T03:29:09.336Z,11.76
2022-10-11T03:30:09.323Z,11.73
2022-10-11T03:31:09.327Z,11.71
2022-10-11T03:32:09.287Z,11.70
2022-10-11T03:33:09.288Z,11.68
2022-10-11T03:34:09.477Z,11.66
2022-10-11T03:35:09.264Z,11.64
2022-10-11T03:36:09.518Z,11.62
2022-10-11T03:37:09.244Z,11.60
2022-10-11T03:38:12.902Z,11.58
2022-10-11T03:39:09.221Z,11.55
2022-10-11T03:40:09.389Z,11.52
2022-10-11T03:41:09.196Z,11.50
2022-10-11T03:42:09.182Z,11.47
2022-10-11T03:43:09.172Z,11.44
2022-10-11T03:44:09.166Z,11.41
2022-10-11T03:45:09.144Z,11.39
2022-10-11T03:46:09.548Z,11.36
2022-10-11T03:47:09.128Z,11.34
2022-10-11T03:48:09.119Z,11.31
2022-10-11T03:49:09.104Z,11.30
2022-10-11T03:50:09.083Z,11.28
2022-10-11T03:51:09.090Z,11.26
2022-10-11T03:52:09.233Z,11.24
2022-10-11T03:53:09.069Z,11.21
2022-10-11T03:54:09.063Z,11.18
2022-10-11T03:55:09.093Z,11.16
2022-10-11T03:56:09.042Z,11.13
2022-10-11T03:57:09.026Z,11.10
2022-10-11T03:58:09.154Z,11.08
2022-10-11T03:59:08.998Z,11.04
2022-10-11T04:00:08.984Z,11.02
2022-10-11T04:01:09.005Z,10.99
2022-10-11T04:02:09.069Z,10.97
2022-10-11T04:03:08.974Z,10.94
2022-10-11T04:04:09.303Z,10.92
2022-10-11T04:05:08.949Z,10.89
2022-10-11T04:06:09.678Z,10.88
2022-10-11T04:07:08.906Z,10.86
2022-10-11T04:08:12.112Z,10.84
2022-10-11T04:09:08.889Z,10.82
2022-10-11T04:10:09.055Z,10.81
2022-10-11T04:11:08.880Z,10.79
2022-10-11T04:12:08.864Z,10.77
2022-10-11T04:13:08.846Z,10.76
2022-10-11T04:14:08.843Z,10.75
2022-10-11T04:15:08.827Z,10.73
2022-10-11T04:16:09.178Z,10.72
2022-10-11T04:17:08.807Z,10.70
2022-10-11T04:18:08.800Z,10.68
2022-10-11T04:19:08.805Z,10.66
2022-10-11T04:20:08.785Z,10.64
2022-10-11T04:21:08.765Z,10.61
2022-10-11T04:22:09.485Z,10.59
2022-10-11T04:23:08.736Z,10.56
2022-10-11T04:24:08.738Z,10.53
2022-10-11T04:25:08.729Z,10.51
2022-10-11T04:26:09.010Z,10.48
2022-10-11T04:27:08.699Z,10.45
2022-10-11T04:28:08.878Z,10.43
2022-10-11T04:29:08.683Z,10.40
2022-10-11T04:30:08.711Z,10.37
2022-10-11T04:31:08.656Z,10.34
2022-10-11T04:32:08.654Z,10.31
2022-10-11T04:33:08.639Z,10.29
2022-10-11T04:34:08.844Z,10.26
2022-10-11T04:35:08.611Z,10.24
2022-10-11T04:36:08.922Z,10.21
2022-10-11T04:37:08.582Z,10.19
2022-10-11T04:38:08.575Z,10.17
2022-10-11T04:39:08.576Z,10.15
2022-10-11T04:40:08.828Z,10.13
2022-10-11T04:41:08.534Z,10.11
2022-10-11T04:42:08.540Z,10.09
2022-10-11T04:43:08.516Z,10.07
2022-10-11T04:44:08.498Z,10.05
2022-10-11T04:45:08.499Z,10.03
2022-10-11T04:46:09.157Z,10.01
2022-10-11T04:47:08.622Z,10.00
2022-10-11T04:48:08.453Z,9.98
2022-10-11T04:49:08.451Z,9.96
2022-10-11T04:50:08.455Z,9.94
2022-10-11T04:51:08.424Z,9.93
2022-10-11T04:52:08.578Z,9.91
2022-10-11T04:53:08.404Z,9.90
2022-10-11T04:54:08.567Z,9.88
2022-10-11T04:55:08.388Z,9.87
2022-10-11T04:56:08.969Z,9.85
2022-10-11T04:57:08.377Z,9.83
2022-10-11T04:58:08.349Z,9.81
2022-10-11T04:59:08.346Z,9.78
2022-10-11T05:00:08.525Z,9.75
2022-10-11T05:01:08.319Z,9.72
2022-10-11T05:02:08.314Z,9.69
2022-10-11T05:03:08.306Z,9.66
2022-10-11T05:04:08.285Z,9.64
2022-10-11T05:05:08.273Z,9.62
2022-10-11T05:06:08.850Z,9.60
2022-10-11T05:07:08.261Z,9.58
2022-10-11T05:08:08.245Z,9.56
2022-10-11T05:09:08.236Z,9.55
2022-10-11T05:10:08.226Z,9.53
2022-10-11T05:11:08.208Z,9.52
2022-10-11T05:12:09.083Z,9.50
2022-10-11T05:13:08.184Z,9.49
2022-10-11T05:14:08.175Z,9.48
2022-10-11T05:15:08.181Z,9.47
2022-10-11T05:16:10.875Z,9.46
2022-10-11T05:17:08.146Z,9.44
2022-10-11T05:18:08.517Z,9.42
2022-10-11T05:19:08.173Z,9.40
2022-10-11T05:20:08.127Z,9.37
2022-10-11T05:21:08.167Z,9.35
2022-10-11T05:22:08.107Z,9.32
2022-10-11T05:23:08.084Z,9.30
2022-10-11T05:24:19.300Z,9.29
2022-10-11T05:25:16.630Z,9.27
2022-10-11T05:26:15.608Z,9.26
2022-10-11T05:27:16.558Z,9.24
2022-10-11T05:28:17.398Z,9.23
2022-10-11T05:29:35.059Z,9.21
2022-10-11T05:30:16.547Z,9.20
2022-10-11T05:31:15.503Z,9.19
2022-10-11T05:32:16.492Z,9.18
2022-10-11T05:33:15.491Z,9.17
2022-10-11T05:34:07.957Z,9.17
2022-10-11T05:35:08.177Z,9.17
2022-10-11T05:36:08.400Z,9.17
2022-10-11T05:37:07.927Z,9.17
2022-10-11T05:38:07.925Z,9.18
2022-10-11T05:39:07.891Z,9.18
2022-10-11T05:40:07.900Z,9.18
2022-10-11T05:41:08.082Z,9.18
2022-10-11T05:42:10.051Z,9.18
2022-10-11T05:43:07.868Z,9.17
2022-10-11T05:44:07.850Z,9.16
2022-10-11T05:45:07.830Z,9.15
2022-10-11T05:46:08.349Z,9.14
2022-10-11T05:47:07.970Z,9.13
2022-10-11T05:48:07.802Z,9.11
2022-10-11T05:49:07.791Z,9.10
2022-10-11T05:50:07.793Z,9.09
2022-10-11T05:51:07.776Z,9.08
2022-10-11T05:52:07.761Z,9.07
2022-10-11T05:53:08.280Z,9.07
2022-10-11T05:54:07.746Z,9.06
2022-10-11T05:55:07.721Z,9.05
2022-10-11T05:56:08.131Z,9.05
2022-10-11T05:57:07.723Z,9.04
2022-10-11T05:58:07.696Z,9.04
2022-10-11T05:59:07.896Z,9.03
2022-10-11T06:00:07.675Z,9.03
2022-10-11T06:01:07.707Z,9.02
2022-10-11T06:02:07.649Z,9.01
2022-10-11T06:03:07.638Z,8.99
2022-10-11T06:04:07.801Z,8.98
2022-10-11T06:05:07.619Z,8.97
2022-10-11T06:06:07.928Z,8.97
2022-10-11T06:07:07.597Z,8.97
2022-10-11T06:08:07.593Z,8.97
2022-10-11T06:09:07.581Z,8.97
2022-10-11T06:10:07.780Z,8.98
2022-10-11T06:11:11.371Z,8.99
2022-10-11T06:12:07.530Z,9.00
2022-10-11T06:13:07.529Z,9.01
2022-10-11T06:14:07.518Z,9.03
2022-10-11T06:15:07.546Z,9.05
2022-10-11T06:16:08.073Z,9.07
2022-10-11T06:17:07.494Z,9.09
2022-10-11T06:18:07.495Z,9.12
2022-10-11T06:19:07.467Z,9.14
2022-10-11T06:20:07.454Z,9.17
2022-10-11T06:21:07.450Z,9.19
2022-10-11T06:22:07.642Z,9.22
2022-10-11T06:23:07.415Z,9.25
2022-10-11T06:24:07.404Z,9.28
2022-10-11T06:25:07.435Z,9.32
2022-10-11T06:26:07.982Z,9.35
2022-10-11T06:27:07.372Z,9.38
2022-10-11T06:28:07.745Z,9.41
2022-10-11T06:29:07.376Z,9.43
2022-10-11T06:30:07.398Z,9.47
2022-10-11T06:31:07.330Z,9.50
2022-10-11T06:32:07.320Z,9.53
2022-10-11T06:33:07.329Z,9.56
2022-10-11T06:34:07.451Z,9.59
2022-10-11T06:35:07.286Z,9.63
2022-10-11T06:36:07.767Z,9.66
2022-10-11T06:37:07.269Z,9.70
2022-10-11T06:38:07.255Z,9.73
2022-10-11T06:39:16.948Z,9.77
2022-10-11T06:40:14.773Z,9.81
2022-10-11T06:41:14.726Z,9.85
2022-10-11T06:42:15.927Z,9.89
2022-10-11T06:43:14.874Z,9.93
2022-10-11T06:44:11.934Z,9.97
2022-10-11T06:48:41.278Z,11.32
2022-10-11T06:49:48.606Z,10.91
2022-10-11T06:50:59.234Z,10.64
2022-10-11T06:51:42.053Z,10.51
2022-10-11T06:52:41.053Z,10.45
2022-10-11T06:53:41.038Z,10.43
2022-10-11T06:54:44.715Z,10.43
2022-10-11T06:55:41.014Z,10.45
2022-10-11T06:56:41.038Z,10.47
2022-10-11T06:57:41.004Z,10.50
2022-10-11T06:58:40.981Z,10.53
2022-10-11T06:59:40.984Z,10.57
2022-10-11T07:00:41.221Z,10.60
2022-10-11T07:01:41.029Z,10.63
2022-10-11T07:02:40.938Z,10.66
2022-10-11T07:03:40.913Z,10.69
2022-10-11T07:04:40.912Z,10.72
2022-10-11T07:05:40.903Z,10.75
2022-10-11T07:06:41.053Z,10.77
2022-10-11T07:07:40.887Z,10.80
2022-10-11T07:08:40.862Z,10.83
2022-10-11T07:09:40.932Z,10.86
2022-10-11T07:10:40.844Z,10.89
2022-10-11T07:11:40.833Z,10.92
2022-10-11T07:12:41.083Z,10.95
2022-10-11T07:13:40.810Z,10.98
2022-10-11T07:14:40.845Z,11.01
2022-10-11T07:15:40.815Z,11.05
2022-10-11T07:16:40.788Z,11.08
2022-10-11T07:17:40.932Z,11.11
2022-10-11T07:18:40.921Z,11.15
2022-10-11T07:19:40.742Z,11.19
2022-10-11T07:20:40.734Z,11.23
2022-10-11T07:21:40.721Z,11.27
2022-10-11T07:22:40.730Z,11.32
2022-10-11T07:23:40.703Z,11.36
2022-10-11T07:24:40.863Z,11.40
2022-10-11T07:25:40.715Z,11.44
2022-10-11T07:26:40.688Z,11.48
2022-10-11T07:27:40.675Z,11.52
2022-10-11T07:28:40.725Z,11.56
2022-10-11T07:29:40.633Z,11.60
2022-10-11T07:30:40.649Z,11.63
2022-10-11T07:31:40.609Z,11.67
2022-10-11T07:32:40.604Z,11.71
2022-10-11T07:33:40.596Z,11.75
2022-10-11T07:34:40.582Z,11.80
2022-10-11T07:35:42.865Z,11.84
2022-10-11T07:36:41.734Z,11.88
2022-10-11T07:37:40.564Z,11.92
2022-10-11T07:38:40.568Z,11.95
2022-10-11T07:39:40.542Z,11.99
2022-10-11T07:40:40.522Z,12.02
2022-10-11T07:41:45.437Z,12.05
2022-10-11T07:42:41.532Z,12.08
2022-10-11T07:43:40.499Z,12.11
2022-10-11T07:44:40.474Z,12.15
2022-10-11T07:45:40.454Z,12.19
2022-10-11T07:46:40.508Z,12.22
2022-10-11T07:47:40.449Z,12.26
2022-10-11T07:48:40.453Z,12.30
2022-10-11T07:49:40.414Z,12.34
2022-10-11T07:50:40.408Z,12.37
2022-10-11T07:51:40.398Z,12.40
2022-10-11T07:52:40.376Z,12.43
2022-10-11T07:53:40.425Z,12.45
2022-10-11T07:54:40.468Z,12.48
2022-10-11T07:55:40.354Z,12.50
2022-10-11T07:56:40.352Z,12.53
2022-10-11T07:57:40.330Z,12.55
2022-10-11T07:58:40.347Z,12.58
2022-10-11T07:59:40.301Z,12.62
2022-10-11T08:00:40.471Z,12.65
2022-10-11T08:01:40.327Z,12.69
2022-10-11T08:02:40.388Z,12.71
2022-10-11T08:03:40.253Z,12.73
2022-10-11T08:04:40.263Z,12.75
2022-10-11T08:05:40.234Z,12.76
2022-10-11T08:06:40.396Z,12.78
2022-10-11T08:07:40.245Z,12.80
2022-10-11T08:08:40.213Z,12.82
2022-10-11T08:09:40.192Z,12.85
2022-10-11T08:10:40.194Z,12.89
2022-10-11T08:11:40.178Z,12.93
2022-10-11T08:12:40.512Z,12.97
2022-10-11T08:13:40.145Z,13.00
2022-10-11T08:14:40.156Z,13.03
2022-10-11T08:15:40.142Z,13.04
2022-10-11T08:16:40.122Z,13.06
2022-10-11T08:17:40.125Z,13.07
2022-10-11T08:18:40.337Z,13.09
2022-10-11T08:19:40.088Z,13.14
2022-10-11T08:20:40.093Z,13.21
2022-10-11T08:21:40.137Z,13.28
2022-10-11T08:22:40.086Z,13.33
2022-10-11T08:23:40.070Z,13.37
2022-10-11T08:24:40.228Z,13.41
2022-10-11T08:25:40.025Z,13.45
2022-10-11T08:26:40.014Z,13.47
2022-10-11T08:27:39.996Z,13.49
2022-10-11T08:28:40.034Z,13.51
2022-10-11T08:29:39.974Z,13.52
2022-10-11T08:30:40.160Z,13.54
2022-10-11T08:31:39.953Z,13.55
2022-10-11T08:32:39.955Z,13.56
2022-10-11T08:33:39.936Z,13.58
2022-10-11T08:34:39.949Z,13.59
2022-10-11T08:35:39.912Z,13.61
2022-10-11T08:36:40.080Z,13.64
2022-10-11T08:37:39.911Z,13.69
2022-10-11T08:38:39.890Z,13.75
2022-10-11T08:39:39.879Z,13.80
2022-10-11T08:40:39.865Z,13.84
2022-10-11T08:41:39.855Z,13.86
2022-10-11T08:42:40.078Z,13.89
2022-10-11T08:43:39.822Z,13.93
2022-10-11T08:45:09.373Z,13.98
2022-10-11T08:45:40.826Z,14.04
2022-10-11T08:46:39.837Z,14.10
2022-10-11T08:47:39.791Z,14.15
2022-10-11T08:48:39.980Z,14.19
2022-10-11T08:49:39.764Z,14.23
2022-10-11T08:50:39.772Z,14.25
2022-10-11T08:51:39.736Z,14.27
2022-10-11T08:52:39.729Z,14.30
2022-10-11T08:53:39.726Z,14.34
2022-10-11T08:54:39.942Z,14.38
2022-10-11T08:55:39.710Z,14.41
2022-10-11T08:56:39.688Z,14.44
2022-10-11T08:57:39.671Z,14.48
2022-10-11T08:58:39.716Z,14.52
2022-10-11T08:59:39.678Z,14.57
2022-10-11T09:00:40.069Z,14.62
2022-10-11T09:01:39.669Z,14.66
2022-10-11T09:03:03.381Z,14.71
2022-10-11T09:03:40.613Z,14.73
2022-10-11T09:04:39.601Z,14.75
2022-10-11T09:05:39.584Z,14.76
2022-10-11T09:06:39.743Z,14.75
2022-10-11T09:07:39.565Z,14.75
2022-10-11T09:08:39.560Z,14.75
2022-10-11T09:09:39.549Z,14.75
2022-10-11T09:10:39.538Z,14.74
2022-10-11T09:11:39.518Z,14.74
2022-10-11T09:12:40.950Z,14.74
2022-10-11T09:13:39.499Z,14.74
2022-10-11T09:14:39.493Z,14.75
2022-10-11T09:15:39.477Z,14.78
2022-10-11T09:16:39.494Z,14.85
2022-10-11T09:17:39.458Z,14.92
2022-10-11T09:18:39.621Z,14.98
2022-10-11T09:19:39.437Z,15.02
2022-10-11T09:20:39.425Z,15.06
2022-10-11T09:21:39.439Z,15.08
2022-10-11T09:22:39.402Z,15.10
2022-10-11T09:23:39.433Z,15.10
2022-10-11T09:24:39.442Z,15.11
2022-10-11T09:25:39.370Z,15.14
2022-10-11T09:26:39.352Z,15.16
2022-10-11T09:28:01.126Z,15.18
2022-10-11T09:28:40.373Z,15.19
2022-10-11T09:29:39.322Z,15.21
2022-10-11T09:30:39.554Z,15.24
2022-10-11T09:31:39.305Z,15.28
2022-10-11T09:32:39.298Z,15.31
2022-10-11T09:33:39.283Z,15.32
2022-10-11T09:34:39.274Z,15.34
2022-10-11T09:35:39.252Z,15.35
2022-10-11T09:36:39.432Z,15.37
2022-10-11T09:37:39.234Z,15.38
2022-10-11T09:38:39.232Z,15.39
2022-10-11T09:39:39.233Z,15.41
2022-10-11T09:40:39.218Z,15.44
2022-10-11T09:41:39.215Z,15.47
2022-10-11T09:42:39.391Z,15.48
2022-10-11T09:43:39.174Z,15.50
2022-10-11T09:44:39.163Z,15.53
2022-10-11T09:45:39.148Z,15.56
2022-10-11T09:46:39.160Z,15.59
2022-10-11T09:47:39.123Z,15.60
2022-10-11T09:48:39.283Z,15.61
2022-10-11T09:49:39.145Z,15.61
2022-10-11T09:50:39.110Z,15.62
2022-10-11T09:51:39.123Z,15.64
2022-10-11T09:52:39.091Z,15.65
2022-10-11T09:53:39.060Z,15.65
2022-10-11T09:54:39.221Z,15.65
2022-10-11T09:55:39.041Z,15.65
2022-10-11T09:56:39.027Z,15.66
2022-10-11T09:57:39.030Z,15.65
2022-10-11T09:58:39.013Z,15.64
2022-10-11T09:59:39.003Z,15.62
2022-10-11T10:00:39.225Z,15.61
2022-10-11T10:01:39.044Z,15.60
2022-10-11T10:02:38.964Z,15.59
2022-10-11T10:03:38.953Z,15.58
2022-10-11T10:04:38.948Z,15.58
2022-10-11T10:05:38.932Z,15.57
2022-10-11T10:06:39.260Z,15.58
2022-10-11T10:07:38.906Z,15.61
2022-10-11T10:08:38.906Z,15.64
2022-10-11T10:09:38.906Z,15.67
2022-10-11T10:10:38.882Z,15.69
2022-10-11T10:11:38.875Z,15.69
2022-10-11T10:12:39.084Z,15.69
2022-10-11T10:13:38.834Z,15.68
2022-10-11T10:14:38.829Z,15.69
2022-10-11T10:15:39.843Z,15.70
2022-10-11T10:16:38.806Z,15.73
2022-10-11T10:17:38.815Z,15.75
2022-10-11T10:18:38.972Z,15.77
2022-10-11T10:19:43.774Z,15.78
2022-10-11T10:20:39.764Z,15.79
2022-10-11T10:21:38.771Z,15.79
2022-10-11T10:22:38.754Z,15.81
2022-10-11T10:23:38.734Z,15.84
2022-10-11T10:24:38.989Z,15.88
2022-10-11T10:25:43.244Z,15.91
2022-10-11T10:26:38.697Z,15.93
2022-10-11T10:27:38.725Z,15.94
2022-10-11T10:28:38.728Z,15.95
2022-10-11T10:29:38.665Z,15.96
2022-10-11T10:30:38.844Z,15.96
2022-10-11T10:31:55.382Z,15.96
2022-10-11T10:32:39.640Z,15.97
2022-10-11T10:33:38.625Z,15.99
2022-10-11T10:34:38.611Z,15.98
2022-10-11T10:35:38.601Z,15.98
2022-10-11T10:36:38.766Z,15.98
2022-10-11T10:37:38.606Z,15.99
2022-10-11T10:38:39.288Z,15.99
2022-10-11T10:39:38.585Z,16.00
2022-10-11T10:40:38.561Z,16.02
2022-10-11T10:41:38.539Z,16.05
2022-10-11T10:42:38.737Z,16.06
2022-10-11T10:43:38.529Z,16.09
2022-10-11T10:44:38.505Z,16.12
2022-10-11T10:45:38.506Z,16.16
2022-10-11T10:46:38.466Z,16.20
2022-10-11T10:47:38.461Z,16.23
2022-10-11T10:49:12.025Z,16.24
2022-10-11T10:49:53.537Z,16.25
2022-10-11T10:50:39.437Z,16.25
2022-10-11T10:51:38.426Z,16.24
2022-10-11T10:52:38.439Z,16.24
2022-10-11T10:53:38.406Z,16.24
2022-10-11T10:54:39.152Z,16.24
2022-10-11T10:55:38.377Z,16.23
2022-10-11T10:56:38.367Z,16.23
2022-10-11T10:57:38.357Z,16.22
2022-10-11T10:58:38.346Z,16.21
2022-10-11T10:59:38.348Z,16.19
2022-10-11T11:00:38.670Z,16.18
2022-10-11T11:01:38.363Z,16.18
2022-10-11T11:02:46.042Z,16.18
2022-10-11T11:03:38.295Z,16.19
2022-10-11T11:04:46.099Z,16.19
2022-10-11T11:05:47.280Z,16.17
2022-10-11T11:06:45.767Z,16.15
2022-10-11T11:07:45.761Z,16.11
2022-10-11T11:08:45.755Z,16.06
2022-10-11T11:09:45.740Z,16.01
2022-10-11T11:10:38.207Z,15.97
2022-10-11T11:11:38.405Z,15.93
2022-10-11T11:12:38.208Z,15.92
2022-10-11T11:13:45.693Z,15.92
2022-10-11T11:14:46.000Z,15.93
2022-10-11T11:15:38.473Z,15.96
2022-10-11T11:16:38.186Z,16.00
2022-10-11T11:17:38.390Z,16.05
2022-10-11T11:18:38.168Z,16.09
2022-10-11T11:19:38.114Z,16.13
2022-10-11T11:20:38.144Z,16.18
2022-10-11T11:21:41.489Z,16.22
2022-10-11T11:22:38.111Z,16.25
2022-10-11T11:23:38.344Z,16.28
2022-10-11T11:24:38.204Z,16.31
2022-10-11T11:25:42.553Z,16.33
2022-10-11T11:26:44.043Z,16.34
2022-10-11T11:27:39.055Z,16.36
2022-10-11T11:28:38.060Z,16.36
2022-10-11T11:29:38.552Z,16.35
2022-10-11T11:30:38.059Z,16.35
2022-10-11T11:31:37.982Z,16.34
2022-10-11T11:32:40.297Z,16.33
2022-10-11T11:33:38.961Z,16.32
2022-10-11T11:34:38.001Z,16.31
2022-10-11T11:35:38.135Z,16.30
2022-10-11T11:36:37.949Z,16.29
2022-10-11T11:37:37.921Z,16.27
2022-10-11T11:38:37.912Z,16.25
2022-10-11T11:39:37.932Z,16.23
2022-10-11T11:40:37.904Z,16.20
2022-10-11T11:41:38.229Z,16.19
2022-10-11T11:42:37.881Z,16.17
2022-10-11T11:43:37.861Z,16.16
2022-10-11T11:44:37.858Z,16.16
2022-10-11T11:45:37.836Z,16.15
2022-10-11T11:46:37.825Z,16.16
2022-10-11T11:47:38.037Z,16.18
2022-10-11T11:48:37.796Z,16.20
2022-10-11T11:49:37.876Z,16.23
2022-10-11T11:50:37.784Z,16.25
2022-10-11T11:51:37.782Z,16.26
2022-10-11T11:52:37.764Z,16.26
2022-10-11T11:53:37.938Z,16.25
2022-10-11T11:54:37.744Z,16.19
2022-10-11T11:55:37.730Z,16.11
2022-10-11T11:56:37.715Z,16.04
2022-10-11T11:57:37.711Z,15.98
2022-10-11T11:58:37.697Z,15.94
2022-10-11T11:59:37.915Z,15.92
2022-10-11T12:00:37.681Z,15.92
2022-10-11T12:01:37.703Z,15.94
2022-10-11T12:02:37.653Z,15.96
2022-10-11T12:03:41.418Z,15.99
2022-10-11T12:04:37.626Z,16.00
2022-10-11T12:05:37.799Z,15.99
2022-10-11T12:06:47.754Z,15.96
2022-10-11T12:07:38.647Z,15.93
2022-10-11T12:08:37.576Z,15.90
2022-10-11T12:09:37.586Z,15.88
2022-10-11T12:10:37.591Z,15.86
2022-10-11T12:11:37.725Z,15.83
2022-10-11T12:12:37.543Z,15.79
2022-10-11T12:13:37.528Z,15.75
2022-10-11T12:14:37.528Z,15.73
2022-10-11T12:15:37.526Z,15.71
2022-10-11T12:16:37.521Z,15.70
2022-10-11T12:17:37.711Z,15.69
2022-10-11T12:18:42.531Z,15.69
2022-10-11T12:19:38.491Z,15.68
2022-10-11T12:20:37.461Z,15.66
2022-10-11T12:21:37.463Z,15.62
2022-10-11T12:22:37.431Z,15.57
2022-10-11T12:23:37.722Z,15.53
2022-10-11T12:24:37.413Z,15.50
2022-10-11T12:25:37.414Z,15.49
2022-10-11T12:26:37.382Z,15.48
2022-10-11T12:27:37.376Z,15.48
2022-10-11T12:28:37.423Z,15.48
2022-10-11T12:29:37.401Z,15.49
2022-10-11T12:30:37.366Z,15.49
2022-10-11T12:31:39.360Z,15.49
2022-10-11T12:32:37.319Z,15.49
2022-10-11T12:33:37.312Z,15.49
2022-10-11T12:34:37.336Z,15.49
2022-10-11T12:35:37.443Z,15.49
2022-10-11T12:36:37.272Z,15.49
2022-10-11T12:37:37.272Z,15.49
2022-10-11T12:38:37.279Z,15.49
2022-10-11T12:39:37.254Z,15.49
2022-10-11T12:40:37.265Z,15.50
2022-10-11T12:41:37.273Z,15.50
2022-10-11T12:42:37.224Z,15.51
2022-10-11T12:43:37.224Z,15.51
2022-10-11T12:44:37.203Z,15.49
2022-10-11T12:45:37.194Z,15.48
2022-10-11T12:46:37.167Z,15.47
2022-10-11T12:47:37.317Z,15.46
2022-10-11T12:48:40.788Z,15.45
2022-10-11T12:49:37.142Z,15.45
2022-10-11T12:50:37.123Z,15.45
2022-10-11T12:51:37.122Z,15.46
2022-10-11T12:52:37.108Z,15.46
2022-10-11T12:53:37.265Z,15.46
2022-10-11T12:54:37.490Z,15.45
2022-10-11T12:55:37.110Z,15.43
2022-10-11T12:56:37.063Z,15.42
2022-10-11T12:57:37.097Z,15.42
2022-10-11T12:58:37.036Z,15.42
2022-10-11T12:59:37.212Z,15.42